Terminal Aerodrome Forecast
Issued by NWS

Current Version | Previous Version | Graphics & Text | Print | Product List | Glossary On
Versions: 1 2 3 4 5 6 7 8 9 10 11 12 13 14 15 16 17 18
000
FTUS41 KILN 251700
TAFLCK
TAF
KLCK 251734Z 2518/2618 24006KT P6SM BKN040
     FM252000 VRB04KT P6SM SCT040 BKN250
     FM260200 18003KT P6SM BKN100
     FM261400 22008KT P6SM SCT050 BKN100=

USA.gov is the U.S. government's official web portal to all federal, state and local government web resources and services.